Time;durP1;ratioP1;P1;durP2;ratioP2;P2;SDS_P1;SDS_P2;PMS_P1;PMS_P2;Temp;Humidity;BMP_temperature;BMP_pressure;BME280_temperature;BME280_humidity;BME280_pressure;Samples;Min_cycle;Max_cycle;Signal;HPM_P1;HPM_P2
2021/11/05 00:00:40;;;;;;;2.50;2.30;;;7.20;99.90;;;;;;5116658;28;20496;-70
2021/11/05 00:03:07;;;;;;;7.60;3.00;;;7.20;99.90;;;;;;5116317;28;20451;-70
2021/11/05 00:05:35;;;;;;;2.37;2.17;;;7.20;99.90;;;;;;5116545;28;20478;-70
2021/11/05 00:08:07;;;;;;;3.03;2.50;;;7.20;99.90;;;;;;5116131;28;20462;-70
2021/11/05 00:10:34;;;;;;;3.30;3.00;;;7.20;99.90;;;;;;5116294;28;20889;-70
2021/11/05 00:13:01;;;;;;;2.57;2.37;;;7.20;99.90;;;;;;5116238;28;20591;-70
2021/11/05 00:15:29;;;;;;;3.40;2.40;;;7.20;99.90;;;;;;5116184;28;20462;-70
2021/11/05 00:17:57;;;;;;;3.20;2.73;;;7.20;99.90;;;;;;5115938;28;20515;-70
2021/11/05 00:20:24;;;;;;;3.73;2.53;;;7.20;99.90;;;;;;5116586;28;20483;-71
2021/11/05 00:22:51;;;;;;;2.37;2.00;;;7.10;99.90;;;;;;5117717;28;20482;-70
2021/11/05 00:25:18;;;;;;;2.13;1.83;;;7.10;99.90;;;;;;5116199;28;20455;-70
2021/11/05 00:27:45;;;;;;;2.43;2.23;;;7.00;99.90;;;;;;5116286;28;20486;-70
2021/11/05 00:30:13;;;;;;;2.70;1.73;;;7.00;99.90;;;;;;5115582;28;20933;-70
2021/11/05 00:32:40;;;;;;;2.13;1.93;;;7.00;99.90;;;;;;5115894;28;20460;-70
2021/11/05 00:35:09;;;;;;;3.13;2.03;;;6.90;99.90;;;;;;5115679;28;20482;-70
2021/11/05 00:37:36;;;;;;;1.97;1.77;;;7.00;99.90;;;;;;5115746;28;20752;-70
2021/11/05 00:40:03;;;;;;;1.70;1.60;;;6.90;99.90;;;;;;5115106;28;20459;-70
2021/11/05 00:42:30;;;;;;;2.40;2.03;;;6.90;99.90;;;;;;5115651;28;20483;-70
2021/11/05 00:44:56;;;;;;;2.37;1.77;;;6.90;99.90;;;;;;5115698;28;20530;-69
2021/11/05 00:47:23;;;;;;;2.87;1.80;;;6.90;99.90;;;;;;5115926;28;20525;-71
2021/11/05 00:49:50;;;;;;;2.07;1.90;;;6.90;99.90;;;;;;5115537;28;20460;-70
2021/11/05 00:52:18;;;;;;;3.80;2.20;;;6.90;99.90;;;;;;5115634;28;20598;-71
2021/11/05 00:54:45;;;;;;;3.00;1.90;;;6.90;99.90;;;;;;5115134;28;20468;-70
2021/11/05 00:57:11;;;;;;;1.70;1.57;;;6.90;99.90;;;;;;5114772;28;20485;-70
2021/11/05 00:59:40;;;;;;;2.10;1.83;;;6.90;99.90;;;;;;5115055;28;20512;-70
2021/11/05 01:02:07;;;;;;;2.00;1.50;;;6.90;99.90;;;;;;5115157;28;20487;-70
2021/11/05 01:04:34;;;;;;;2.00;1.80;;;6.90;99.90;;;;;;5114954;28;20495;-71
2021/11/05 01:07:01;;;;;;;2.70;2.03;;;6.90;99.90;;;;;;5115400;28;20774;-70
2021/11/05 01:09:29;;;;;;;2.60;2.20;;;6.80;99.90;;;;;;5115261;28;20460;-71
2021/11/05 01:11:55;;;;;;;2.00;1.53;;;6.90;99.90;;;;;;5114963;28;20450;-70
2021/11/05 01:14:22;;;;;;;2.20;1.57;;;6.90;99.90;;;;;;5115544;28;20465;-70
2021/11/05 01:16:49;;;;;;;2.30;1.93;;;6.90;99.90;;;;;;5115084;28;20634;-71
2021/11/05 01:19:16;;;;;;;2.67;1.70;;;6.90;99.90;;;;;;5115230;28;20455;-71
2021/11/05 01:21:43;;;;;;;2.10;1.90;;;6.90;99.90;;;;;;5115455;28;20532;-70
2021/11/05 01:24:09;;;;;;;2.67;2.07;;;6.90;99.90;;;;;;5115023;28;20507;-70
2021/11/05 01:26:38;;;;;;;1.77;1.63;;;6.80;99.90;;;;;;5115337;28;20516;-70
2021/11/05 01:29:04;;;;;;;2.57;1.90;;;6.90;99.90;;;;;;5114387;28;20458;-70
2021/11/05 01:31:31;;;;;;;2.13;1.67;;;6.90;99.90;;;;;;5115061;28;20509;-70
2021/11/05 01:34:00;;;;;;;3.53;2.20;;;6.90;99.90;;;;;;5114892;28;20496;-70
2021/11/05 01:36:27;;;;;;;1.80;1.70;;;6.90;99.90;;;;;;5115039;28;20461;-70
2021/11/05 01:38:53;;;;;;;3.10;2.37;;;6.90;99.90;;;;;;5115050;28;20470;-70
2021/11/05 01:41:20;;;;;;;2.33;2.13;;;6.90;99.90;;;;;;5114671;28;20484;-70
2021/11/05 01:43:49;;;;;;;2.23;2.00;;;6.90;99.90;;;;;;5114877;28;20488;-70
2021/11/05 01:46:19;;;;;;;2.63;1.97;;;6.90;99.90;;;;;;5115021;28;20834;-70
2021/11/05 01:48:46;;;;;;;2.70;2.37;;;6.90;99.90;;;;;;5115058;28;20466;-70
2021/11/05 01:51:14;;;;;;;2.30;2.10;;;6.90;99.90;;;;;;5115582;28;20460;-70
2021/11/05 01:53:40;;;;;;;2.40;2.17;;;7.00;99.90;;;;;;5115059;28;20468;-70
2021/11/05 01:56:07;;;;;;;2.40;2.00;;;7.00;99.90;;;;;;5116185;28;20463;-70
2021/11/05 01:58:34;;;;;;;2.70;2.37;;;7.00;99.90;;;;;;5115462;28;20502;-70
2021/11/05 02:01:02;;;;;;;2.40;2.13;;;7.00;99.90;;;;;;5114739;28;20499;-69
2021/11/05 02:03:29;;;;;;;2.17;1.97;;;7.00;99.90;;;;;;5115423;28;20468;-71
2021/11/05 02:05:58;;;;;;;2.67;2.30;;;7.00;99.90;;;;;;5116569;28;20455;-69
2021/11/05 02:08:25;;;;;;;3.17;1.87;;;7.00;99.90;;;;;;5118386;28;20454;-70
2021/11/05 02:10:55;;;;;;;2.30;2.10;;;7.00;99.90;;;;;;5118082;28;20918;-69
2021/11/05 02:13:23;;;;;;;2.30;2.10;;;7.00;99.90;;;;;;5118191;28;20473;-69
2021/11/05 02:15:50;;;;;;;2.53;2.00;;;7.00;99.90;;;;;;5118975;28;20519;-69
2021/11/05 02:18:19;;;;;;;2.03;1.87;;;7.00;99.90;;;;;;5118549;28;20453;-70
2021/11/05 02:20:48;;;;;;;4.03;2.30;;;7.00;99.90;;;;;;5118474;28;20464;-70
2021/11/05 02:23:16;;;;;;;2.40;2.20;;;7.00;99.90;;;;;;5118018;28;20564;-71
2021/11/05 02:25:44;;;;;;;2.33;2.13;;;7.00;99.90;;;;;;5118495;28;20491;-71
2021/11/05 02:28:10;;;;;;;3.50;2.13;;;7.00;99.90;;;;;;5118427;28;20504;-70
2021/11/05 02:30:37;;;;;;;2.67;2.47;;;7.00;99.90;;;;;;5118521;28;20576;-71
2021/11/05 02:33:06;;;;;;;2.60;2.40;;;7.00;99.90;;;;;;5118960;28;20455;-71
2021/11/05 02:35:33;;;;;;;2.50;2.27;;;7.00;99.90;;;;;;5118560;28;20499;-70
2021/11/05 02:37:59;;;;;;;2.23;1.77;;;7.00;99.90;;;;;;5117900;28;20455;-70
2021/11/05 02:40:27;;;;;;;2.23;1.77;;;7.00;99.90;;;;;;5117943;28;20469;-69
2021/11/05 02:42:54;;;;;;;2.23;2.03;;;7.00;99.90;;;;;;5118648;28;21012;-69
2021/11/05 02:45:21;;;;;;;2.43;2.20;;;7.00;99.90;;;;;;5121302;28;20831;-69
2021/11/05 02:47:48;;;;;;;2.90;2.00;;;7.00;99.90;;;;;;5125144;27;20519;-70
2021/11/05 02:50:16;;;;;;;2.93;1.80;;;7.10;99.90;;;;;;5123413;28;20453;-70
2021/11/05 02:52:44;;;;;;;2.30;2.00;;;7.10;99.90;;;;;;5122570;28;20568;-69
2021/11/05 02:55:13;;;;;;;4.13;2.90;;;7.10;99.90;;;;;;5119206;28;21019;-70
2021/11/05 02:57:41;;;;;;;2.77;2.57;;;7.10;99.90;;;;;;5118189;28;20517;-70
2021/11/05 03:00:11;;;;;;;3.00;2.70;;;7.10;99.90;;;;;;5118035;28;20766;-70
2021/11/05 03:02:38;;;;;;;3.40;3.07;;;7.10;99.90;;;;;;5117729;28;20475;-70
2021/11/05 03:05:05;;;;;;;3.47;3.17;;;7.10;99.90;;;;;;5116785;28;20459;-70
2021/11/05 03:07:32;;;;;;;3.70;3.40;;;7.10;99.90;;;;;;5117330;27;20936;-70
2021/11/05 03:10:01;;;;;;;4.17;3.47;;;7.20;99.90;;;;;;5117647;28;20836;-70
2021/11/05 03:12:28;;;;;;;4.70;3.70;;;7.20;99.90;;;;;;5117493;28;20452;-70
2021/11/05 03:14:56;;;;;;;6.60;4.40;;;7.30;99.90;;;;;;5117394;28;20459;-70
2021/11/05 03:17:25;;;;;;;6.57;5.47;;;7.20;99.90;;;;;;5117370;27;20827;-70
2021/11/05 03:19:52;;;;;;;7.63;5.70;;;7.20;99.90;;;;;;5117633;28;20460;-70
2021/11/05 03:22:19;;;;;;;7.47;6.27;;;7.30;99.90;;;;;;5117099;28;20952;-70
2021/11/05 03:24:46;;;;;;;9.30;8.00;;;7.30;99.90;;;;;;5117080;28;20456;-70
2021/11/05 03:27:13;;;;;;;8.50;7.47;;;7.30;99.90;;;;;;5117215;27;20463;-70
2021/11/05 03:29:39;;;;;;;9.13;7.37;;;7.40;99.90;;;;;;5117121;27;20746;-70
2021/11/05 03:32:09;;;;;;;7.80;6.40;;;7.40;99.90;;;;;;5116696;28;20461;-70
2021/11/05 03:34:35;;;;;;;8.43;7.37;;;7.40;99.90;;;;;;5116818;28;20455;-70
2021/11/05 03:37:02;;;;;;;7.40;6.10;;;7.40;99.90;;;;;;5116922;27;20460;-70
2021/11/05 03:39:29;;;;;;;8.03;6.30;;;7.40;99.90;;;;;;5117007;28;20568;-70
2021/11/05 03:41:56;;;;;;;14.20;6.60;;;7.40;99.90;;;;;;5116186;28;20537;-70
2021/11/05 03:44:23;;;;;;;7.27;6.43;;;7.40;99.90;;;;;;5116695;27;20463;-71
2021/11/05 03:46:49;;;;;;;6.57;5.87;;;7.40;99.90;;;;;;5116840;28;20946;-70
2021/11/05 03:49:17;;;;;;;10.77;5.80;;;7.50;99.90;;;;;;5116665;28;20457;-70
2021/11/05 03:51:44;;;;;;;7.73;6.07;;;7.50;99.90;;;;;;5116478;28;20460;-70
2021/11/05 03:54:11;;;;;;;6.20;5.20;;;7.50;99.90;;;;;;5117243;28;20839;-70
2021/11/05 03:56:38;;;;;;;6.70;5.83;;;7.50;99.90;;;;;;5116326;28;20545;-70
2021/11/05 03:59:05;;;;;;;7.83;5.83;;;7.50;99.90;;;;;;5115790;28;20563;-73
2021/11/05 04:01:31;;;;;;;11.23;7.77;;;7.50;99.90;;;;;;5117009;28;20517;-70
2021/11/05 04:03:58;;;;;;;12.63;9.13;;;7.50;99.90;;;;;;5116407;28;20460;-70
2021/11/05 04:06:26;;;;;;;11.67;8.37;;;7.50;99.90;;;;;;5116269;28;20785;-70
2021/11/05 04:08:54;;;;;;;9.40;6.27;;;7.60;99.90;;;;;;5116011;28;20570;-70
2021/11/05 04:11:20;;;;;;;8.80;6.90;;;7.60;99.90;;;;;;5116111;28;20880;-70
2021/11/05 04:13:48;;;;;;;10.90;6.93;;;7.60;99.90;;;;;;5116206;28;20451;-69
2021/11/05 04:16:15;;;;;;;8.57;6.67;;;7.60;99.90;;;;;;5115750;28;20770;-70
2021/11/05 04:18:42;;;;;;;9.13;7.00;;;7.60;99.90;;;;;;5115457;28;20980;-69
2021/11/05 04:21:08;;;;;;;8.87;7.17;;;7.60;99.90;;;;;;5116111;28;20460;-69
2021/11/05 04:23:37;;;;;;;8.73;6.73;;;7.60;99.90;;;;;;5115975;28;20551;-69
2021/11/05 04:26:05;;;;;;;13.93;8.43;;;7.70;99.90;;;;;;5116078;28;20468;-70
2021/11/05 04:28:32;;;;;;;10.80;8.30;;;7.60;99.90;;;;;;5115254;28;20469;-70
2021/11/05 04:30:59;;;;;;;9.23;8.23;;;7.60;99.90;;;;;;5115648;28;20849;-70
2021/11/05 04:33:25;;;;;;;11.13;9.37;;;7.60;99.90;;;;;;5116022;28;20786;-70
2021/11/05 04:35:53;;;;;;;11.63;8.60;;;7.60;99.90;;;;;;5115597;28;20960;-70
2021/11/05 04:38:20;;;;;;;12.97;9.20;;;7.60;99.90;;;;;;5115663;28;20562;-70
2021/11/05 04:40:48;;;;;;;10.90;8.20;;;7.60;99.90;;;;;;5115533;28;20489;-70
2021/11/05 04:43:14;;;;;;;11.93;9.40;;;7.60;99.90;;;;;;5115916;28;20480;-70
2021/11/05 04:45:41;;;;;;;14.83;10.23;;;7.60;99.90;;;;;;5115974;28;20467;-70
2021/11/05 04:48:08;;;;;;;13.60;10.57;;;7.60;99.90;;;;;;5115977;28;20579;-71
2021/11/05 04:50:35;;;;;;;13.90;10.83;;;7.70;99.90;;;;;;5115969;28;20467;-70
2021/11/05 04:53:02;;;;;;;15.93;10.43;;;7.70;99.90;;;;;;5115178;28;20828;-70
2021/11/05 04:55:29;;;;;;;15.07;10.73;;;7.70;99.90;;;;;;5115384;28;20458;-70
2021/11/05 04:57:58;;;;;;;17.40;12.73;;;7.70;99.90;;;;;;5115346;28;20494;-70
2021/11/05 05:00:26;;;;;;;17.67;12.40;;;7.70;99.90;;;;;;5115283;28;20459;-69
2021/11/05 05:02:54;;;;;;;17.83;11.50;;;7.70;99.90;;;;;;5115076;28;20477;-70
2021/11/05 05:05:22;;;;;;;16.37;12.33;;;7.70;99.90;;;;;;5115337;28;20524;-70
2021/11/05 05:07:48;;;;;;;17.07;13.53;;;7.70;99.90;;;;;;5115154;28;20914;-70
2021/11/05 05:10:16;;;;;;;20.80;14.40;;;7.70;99.90;;;;;;5115171;28;20864;-70
2021/11/05 05:12:43;;;;;;;21.83;15.63;;;7.70;99.90;;;;;;5115390;28;20546;-69
2021/11/05 05:15:13;;;;;;;18.30;13.87;;;7.70;99.90;;;;;;5115530;28;20455;-70
2021/11/05 05:17:40;;;;;;;20.07;15.20;;;7.80;99.90;;;;;;5116270;28;20451;-70
2021/11/05 05:20:09;;;;;;;23.30;15.40;;;7.80;99.90;;;;;;5116116;28;20820;-69
2021/11/05 05:22:36;;;;;;;23.73;15.40;;;7.80;99.90;;;;;;5115554;28;20842;-70
2021/11/05 05:25:04;;;;;;;22.23;15.00;;;7.70;99.90;;;;;;5115019;28;20542;-69
2021/11/05 05:27:34;;;;;;;22.80;16.40;;;7.80;99.90;;;;;;5115339;28;20921;-70
2021/11/05 05:30:01;;;;;;;26.97;17.53;;;7.80;99.90;;;;;;5115506;28;20910;-70
2021/11/05 05:32:29;;;;;;;23.30;16.50;;;7.80;99.90;;;;;;5116014;28;20467;-70
2021/11/05 05:34:58;;;;;;;24.20;18.27;;;7.90;99.90;;;;;;5115149;28;20968;-70
2021/11/05 05:37:25;;;;;;;23.67;16.07;;;7.90;99.90;;;;;;5115729;28;20454;-70
2021/11/05 05:39:52;;;;;;;27.47;18.77;;;7.90;99.90;;;;;;5116039;28;20513;-70
2021/11/05 05:42:18;;;;;;;25.23;18.00;;;7.90;99.90;;;;;;5119891;28;20515;-70
2021/11/05 05:44:45;;;;;;;37.80;20.37;;;7.90;99.90;;;;;;5119541;28;20458;-70
2021/11/05 05:47:12;;;;;;;25.87;17.23;;;7.90;99.90;;;;;;5119577;28;20461;-69
2021/11/05 05:49:40;;;;;;;30.70;17.90;;;7.90;99.90;;;;;;5120175;28;20459;-69
2021/11/05 05:52:08;;;;;;;24.10;17.03;;;8.00;99.90;;;;;;5118536;28;20460;-70
2021/11/05 05:54:35;;;;;;;26.03;17.77;;;8.00;99.90;;;;;;5119179;28;20463;-69
2021/11/05 05:57:01;;;;;;;24.90;17.33;;;8.00;99.90;;;;;;5118422;28;20466;-69
2021/11/05 05:59:28;;;;;;;26.60;17.27;;;8.00;99.90;;;;;;5119056;27;20439;-69
2021/11/05 06:01:55;;;;;;;24.23;17.57;;;8.00;99.90;;;;;;5118620;28;20519;-69
2021/11/05 06:04:23;;;;;;;22.30;16.03;;;8.00;99.90;;;;;;5118698;28;20479;-69
2021/11/05 06:06:51;;;;;;;28.30;16.63;;;8.00;99.90;;;;;;5118653;28;20456;-69
2021/11/05 06:09:18;;;;;;;27.20;18.73;;;8.00;99.90;;;;;;5118129;28;20479;-69
2021/11/05 06:11:45;;;;;;;25.37;17.10;;;8.00;99.90;;;;;;5118485;28;20784;-69
2021/11/05 06:14:12;;;;;;;24.67;17.07;;;8.00;99.90;;;;;;5118467;28;20458;-69
2021/11/05 06:16:39;;;;;;;23.97;15.87;;;8.10;99.90;;;;;;5118514;28;20512;-69
2021/11/05 06:19:06;;;;;;;24.23;17.27;;;8.10;99.90;;;;;;5118054;28;20452;-69
2021/11/05 06:21:33;;;;;;;22.13;15.57;;;8.10;99.90;;;;;;5117982;28;20520;-69
2021/11/05 06:24:01;;;;;;;21.93;16.00;;;8.10;99.90;;;;;;5118115;28;20485;-69
2021/11/05 06:26:28;;;;;;;25.37;16.60;;;8.10;99.90;;;;;;5117800;28;20468;-68
2021/11/05 06:28:55;;;;;;;25.67;16.50;;;8.10;99.90;;;;;;5117929;28;20458;-69
2021/11/05 06:31:21;;;;;;;23.20;17.33;;;8.10;99.90;;;;;;5117787;28;20477;-69
2021/11/05 06:33:48;;;;;;;30.80;17.60;;;8.10;99.90;;;;;;5117752;28;20521;-69
2021/11/05 06:36:15;;;;;;;23.07;16.30;;;8.10;99.90;;;;;;5117986;28;20517;-69
2021/11/05 06:38:41;;;;;;;26.80;16.37;;;8.10;99.90;;;;;;5117454;28;20891;-68
2021/11/05 06:41:12;;;;;;;23.67;15.77;;;8.10;99.90;;;;;;5117717;27;20458;-68
2021/11/05 06:43:38;;;;;;;25.40;17.60;;;8.10;99.90;;;;;;5117005;28;20492;-69
2021/11/05 06:46:05;;;;;;;22.10;14.90;;;8.10;99.90;;;;;;5117190;28;20464;-68
2021/11/05 06:48:35;;;;;;;21.27;15.53;;;8.20;99.90;;;;;;5117622;28;20477;-68
2021/11/05 06:51:02;;;;;;;20.50;15.17;;;8.20;99.90;;;;;;5117007;28;20527;-68
2021/11/05 06:53:28;;;;;;;28.40;16.87;;;8.20;99.90;;;;;;5116856;28;20456;-69
2021/11/05 06:55:55;;;;;;;21.60;15.50;;;8.20;99.90;;;;;;5116961;28;20500;-68
2021/11/05 06:58:24;;;;;;;18.97;14.60;;;8.20;99.90;;;;;;5117283;28;20586;-68
2021/11/05 07:00:51;;;;;;;19.63;14.93;;;8.20;99.90;;;;;;5116969;28;20794;-69
2021/11/05 07:03:18;;;;;;;23.47;16.13;;;8.20;99.90;;;;;;5116748;28;20490;-69
2021/11/05 07:05:45;;;;;;;21.63;15.30;;;8.20;99.90;;;;;;5116731;28;20924;-68
2021/11/05 07:08:11;;;;;;;23.40;15.77;;;8.20;99.90;;;;;;5117255;28;20462;-68
2021/11/05 07:10:38;;;;;;;24.00;14.63;;;8.20;99.90;;;;;;5116813;28;20459;-68
2021/11/05 07:13:05;;;;;;;22.60;15.47;;;8.20;99.90;;;;;;5116920;28;20468;-69
2021/11/05 07:15:33;;;;;;;23.13;15.70;;;8.30;99.90;;;;;;5117535;28;20902;-68
2021/11/05 07:18:01;;;;;;;24.20;15.20;;;8.30;99.90;;;;;;5116459;28;20466;-68
2021/11/05 07:20:28;;;;;;;21.00;14.90;;;8.30;99.90;;;;;;5116616;28;20483;-69
2021/11/05 07:22:55;;;;;;;22.77;14.47;;;8.30;99.90;;;;;;5116881;27;20480;-69
2021/11/05 07:25:22;;;;;;;21.53;14.70;;;8.40;99.90;;;;;;5116843;28;20462;-69
2021/11/05 07:27:49;;;;;;;21.93;13.60;;;8.40;99.90;;;;;;5116447;28;20455;-69
2021/11/05 07:30:16;;;;;;;20.23;14.17;;;8.30;99.90;;;;;;5116883;28;20486;-69
2021/11/05 07:32:45;;;;;;;22.27;14.20;;;8.30;99.90;;;;;;5116474;28;20499;-69
2021/11/05 07:35:13;;;;;;;24.10;15.47;;;8.40;99.90;;;;;;5116523;28;20459;-69
2021/11/05 07:37:40;;;;;;;21.50;14.27;;;8.40;99.90;;;;;;5116148;28;20911;-69
2021/11/05 07:40:08;;;;;;;18.67;12.43;;;8.40;99.90;;;;;;5116911;28;20594;-70
2021/11/05 07:42:36;;;;;;;23.60;14.40;;;8.40;99.90;;;;;;5116222;28;20468;-68
2021/11/05 07:45:04;;;;;;;20.00;13.20;;;8.40;99.90;;;;;;5116137;28;20968;-71
2021/11/05 07:47:34;;;;;;;19.23;13.13;;;8.40;99.90;;;;;;5116480;28;20453;-68
2021/11/05 07:50:03;;;;;;;20.13;13.60;;;8.40;99.90;;;;;;5116679;28;20471;-69
2021/11/05 07:52:30;;;;;;;19.63;12.40;;;8.40;99.90;;;;;;5116376;28;20520;-69
2021/11/05 07:54:57;;;;;;;17.87;13.70;;;8.40;99.90;;;;;;5116284;28;20453;-69
2021/11/05 07:57:24;;;;;;;21.50;13.23;;;8.40;99.90;;;;;;5115955;28;20483;-70
2021/11/05 07:59:52;;;;;;;19.23;13.60;;;8.40;99.90;;;;;;5115854;28;20451;-70
2021/11/05 08:02:19;;;;;;;17.17;12.57;;;8.40;99.90;;;;;;5115810;28;20818;-69
2021/11/05 08:04:46;;;;;;;14.27;10.93;;;8.50;99.90;;;;;;5115267;28;20813;-69
2021/11/05 08:07:14;;;;;;;15.83;11.77;;;8.50;99.90;;;;;;5116459;28;20452;-69
2021/11/05 08:09:40;;;;;;;15.50;11.00;;;8.50;99.90;;;;;;5115711;28;20483;-69
2021/11/05 08:12:08;;;;;;;16.03;10.47;;;8.50;99.90;;;;;;5115964;28;20460;-69
2021/11/05 08:14:34;;;;;;;20.77;12.00;;;8.50;99.90;;;;;;5116007;28;20459;-69
2021/11/05 08:17:03;;;;;;;14.90;11.43;;;8.60;99.90;;;;;;5116119;28;20463;-70
2021/11/05 08:19:29;;;;;;;14.93;10.87;;;8.60;99.90;;;;;;5115664;28;20559;-70
2021/11/05 08:21:56;;;;;;;12.87;9.83;;;8.60;99.90;;;;;;5115871;28;20468;-69
2021/11/05 08:24:28;;;;;;;13.83;11.27;;;8.60;99.90;;;;;;5115982;28;20486;-70
2021/11/05 08:26:57;;;;;;;14.03;11.30;;;8.60;99.90;;;;;;5116235;28;20524;-69
2021/11/05 08:29:24;;;;;;;16.70;10.33;;;8.60;99.90;;;;;;5115949;27;20528;-68
2021/11/05 08:31:51;;;;;;;17.10;10.40;;;8.70;99.90;;;;;;5115606;28;20517;-69
2021/11/05 08:34:19;;;;;;;14.20;10.67;;;8.70;99.90;;;;;;5115820;28;20459;-68
2021/11/05 08:36:46;;;;;;;11.30;9.00;;;8.70;99.90;;;;;;5116003;28;20490;-69
2021/11/05 08:39:13;;;;;;;18.40;11.57;;;8.70;99.90;;;;;;5116274;28;20460;-69
2021/11/05 08:41:41;;;;;;;19.20;11.30;;;8.70;99.90;;;;;;5115261;28;20455;-69
2021/11/05 08:44:10;;;;;;;14.60;10.50;;;8.80;99.90;;;;;;5115674;28;20965;-70
2021/11/05 08:46:37;;;;;;;14.27;10.60;;;8.80;99.90;;;;;;5115974;28;20456;-69
2021/11/05 08:49:10;;;;;;;15.70;11.40;;;8.80;99.90;;;;;;5116322;28;20492;-69
2021/11/05 08:51:38;;;;;;;16.13;11.20;;;8.80;99.90;;;;;;5116184;28;20792;-69
2021/11/05 08:54:05;;;;;;;20.27;11.40;;;8.70;99.90;;;;;;5115920;28;20897;-69
2021/11/05 08:56:31;;;;;;;17.47;9.97;;;8.80;99.90;;;;;;5116247;28;20456;-69
2021/11/05 08:59:00;;;;;;;16.60;10.80;;;8.80;99.90;;;;;;5116738;28;20518;-69
2021/11/05 09:01:27;;;;;;;19.23;10.40;;;8.80;99.90;;;;;;5116439;28;20467;-69
2021/11/05 09:03:57;;;;;;;15.23;9.70;;;8.90;99.90;;;;;;5116810;28;20480;-69
2021/11/05 09:06:25;;;;;;;14.60;9.37;;;8.80;99.90;;;;;;5116245;28;20459;-69
2021/11/05 09:08:52;;;;;;;13.47;9.50;;;8.80;99.90;;;;;;5116626;28;20456;-69
2021/11/05 09:11:19;;;;;;;19.67;9.83;;;8.90;99.90;;;;;;5116481;28;20460;-69
2021/11/05 09:13:47;;;;;;;13.23;9.13;;;8.90;99.90;;;;;;5117084;28;20459;-70
2021/11/05 09:16:16;;;;;;;12.47;9.07;;;8.90;99.90;;;;;;5120319;27;20460;-70
2021/11/05 09:18:43;;;;;;;9.50;7.63;;;8.90;99.90;;;;;;5121711;28;20464;-69
2021/11/05 09:21:10;;;;;;;11.27;8.30;;;8.90;99.90;;;;;;5120992;28;20456;-70
2021/11/05 09:23:37;;;;;;;9.60;8.00;;;8.90;99.90;;;;;;5121170;28;20504;-70
2021/11/05 09:26:04;;;;;;;10.00;8.70;;;9.00;99.90;;;;;;5121035;28;20976;-70
2021/11/05 09:28:35;;;;;;;10.47;8.00;;;9.00;99.90;;;;;;5121326;28;20460;-69
2021/11/05 09:31:02;;;;;;;10.30;7.67;;;9.00;99.90;;;;;;5120760;27;20523;-70
2021/11/05 09:33:30;;;;;;;10.53;8.10;;;9.00;99.90;;;;;;5120363;28;20455;-68
2021/11/05 09:35:57;;;;;;;9.73;7.80;;;9.00;99.90;;;;;;5119980;28;20461;-69
2021/11/05 09:38:24;;;;;;;7.93;7.03;;;9.00;99.90;;;;;;5120726;28;20454;-69
2021/11/05 09:40:51;;;;;;;9.63;7.67;;;9.00;99.90;;;;;;5121091;28;20461;-69
2021/11/05 09:43:19;;;;;;;12.53;6.67;;;9.00;99.90;;;;;;5120928;28;20453;-69
2021/11/05 09:45:45;;;;;;;10.10;7.40;;;9.10;99.90;;;;;;5121936;28;20443;-68
2021/11/05 09:48:13;;;;;;;12.47;6.03;;;9.10;99.90;;;;;;5120711;28;20510;-69
2021/11/05 09:50:41;;;;;;;9.10;6.37;;;9.10;99.90;;;;;;5118316;28;20456;-69
2021/11/05 09:53:08;;;;;;;9.60;6.87;;;9.20;99.90;;;;;;5118850;28;20461;-69
2021/11/05 09:55:36;;;;;;;12.53;7.10;;;9.30;99.90;;;;;;5118580;28;20448;-69
2021/11/05 09:58:03;;;;;;;8.07;6.33;;;9.30;99.90;;;;;;5118239;28;20476;-69
2021/11/05 10:00:29;;;;;;;9.07;6.20;;;9.30;99.90;;;;;;5118916;28;20456;-69
2021/11/05 10:02:56;;;;;;;9.00;6.27;;;9.30;99.90;;;;;;5118302;28;20905;-69
2021/11/05 10:05:23;;;;;;;8.73;6.10;;;9.30;99.90;;;;;;5118287;28;20567;-70
2021/11/05 10:07:54;;;;;;;10.37;6.83;;;9.30;99.90;;;;;;5117943;28;20461;-69
2021/11/05 10:10:26;;;;;;;8.23;6.23;;;9.30;99.90;;;;;;5119217;28;20445;-69
2021/11/05 10:13:01;;;;;;;9.80;6.30;;;9.30;99.90;;;;;;5118225;28;20980;-69
2021/11/05 10:15:35;;;;;;;8.80;5.80;;;9.40;99.90;;;;;;5118512;28;20447;-70
2021/11/05 10:18:10;;;;;;;6.93;4.97;;;9.40;99.90;;;;;;5118992;27;20475;-69
2021/11/05 10:20:37;;;;;;;7.90;5.00;;;9.50;99.90;;;;;;5118828;28;20449;-69
2021/11/05 10:23:06;;;;;;;6.97;5.23;;;9.50;99.90;;;;;;5118387;28;20855;-69
2021/11/05 10:25:36;;;;;;;7.43;5.10;;;9.60;99.90;;;;;;5118120;27;20565;-69
2021/11/05 10:28:24;;;;;;;7.50;4.97;;;9.60;99.90;;;;;;5120243;28;20439;-69
2021/11/05 10:30:57;;;;;;;6.80;5.27;;;9.60;99.90;;;;;;5120921;28;20446;-69
2021/11/05 10:33:28;;;;;;;5.73;3.97;;;9.60;99.90;;;;;;5121036;28;20444;-70
2021/11/05 10:35:56;;;;;;;5.70;4.30;;;9.40;99.90;;;;;;5120517;28;20594;-69
2021/11/05 10:38:25;;;;;;;13.83;5.43;;;9.50;99.90;;;;;;5118958;27;20476;-70
2021/11/05 10:40:55;;;;;;;5.20;4.40;;;9.50;99.90;;;;;;5118580;28;20468;-70
2021/11/05 10:43:33;;;;;;;7.20;4.93;;;9.50;99.90;;;;;;5118194;27;20943;-70
2021/11/05 10:46:00;;;;;;;8.27;5.03;;;9.50;99.90;;;;;;5117477;27;20463;-70
2021/11/05 10:48:28;;;;;;;6.27;4.77;;;9.60;99.90;;;;;;5117477;27;20804;-69
2021/11/05 10:50:57;;;;;;;4.80;4.30;;;9.60;99.90;;;;;;5117154;28;20462;-69
2021/11/05 10:53:27;;;;;;;4.77;4.13;;;9.70;99.90;;;;;;5117445;28;20785;-69
2021/11/05 10:55:56;;;;;;;9.00;5.00;;;9.70;99.90;;;;;;5117147;28;20464;-70
2021/11/05 10:58:26;;;;;;;8.30;4.90;;;9.80;99.90;;;;;;5116769;28;20513;-70
2021/11/05 11:00:56;;;;;;;5.77;4.20;;;9.80;99.90;;;;;;5116905;28;20471;-70
2021/11/05 11:03:30;;;;;;;5.57;4.17;;;9.90;99.90;;;;;;5118015;28;20442;-70
2021/11/05 11:05:58;;;;;;;5.23;4.17;;;9.90;99.90;;;;;;5116567;28;20552;-70
2021/11/05 11:08:29;;;;;;;6.37;4.70;;;9.90;99.90;;;;;;5116871;28;20457;-70
2021/11/05 11:10:58;;;;;;;10.17;5.00;;;9.90;99.90;;;;;;5116805;28;20443;-70
2021/11/05 11:13:34;;;;;;;6.53;5.10;;;9.90;99.90;;;;;;5118032;28;20464;-70
2021/11/05 11:16:04;;;;;;;5.03;3.80;;;9.90;99.90;;;;;;5118734;28;20844;-69
2021/11/05 11:18:31;;;;;;;4.77;4.00;;;9.80;99.90;;;;;;5116996;28;20437;-70
2021/11/05 11:20:58;;;;;;;7.43;4.13;;;9.80;99.90;;;;;;5117035;28;20460;-70
2021/11/05 11:23:26;;;;;;;5.07;4.40;;;9.70;99.90;;;;;;5116795;28;20966;-70
2021/11/05 11:25:53;;;;;;;4.67;4.23;;;9.70;99.90;;;;;;5116223;28;20478;-68
2021/11/05 11:28:20;;;;;;;7.20;5.27;;;9.80;99.90;;;;;;5116283;28;20454;-70
2021/11/05 11:30:48;;;;;;;6.37;4.67;;;9.70;99.90;;;;;;5116547;28;20471;-70
2021/11/05 11:33:15;;;;;;;5.00;4.03;;;9.70;99.90;;;;;;5116697;28;20455;-70
2021/11/05 11:35:45;;;;;;;7.57;5.07;;;9.80;99.90;;;;;;5116831;28;20471;-70
2021/11/05 11:38:16;;;;;;;6.50;4.60;;;9.80;99.90;;;;;;5115747;28;20550;-69
2021/11/05 11:40:47;;;;;;;8.83;5.00;;;9.90;99.90;;;;;;5116028;28;20457;-70
2021/11/05 11:43:16;;;;;;;6.90;4.50;;;9.90;99.90;;;;;;5116435;28;20458;-68
2021/11/05 11:45:48;;;;;;;6.23;4.60;;;9.90;99.90;;;;;;5116727;28;20485;-69
2021/11/05 11:48:48;;;;;;;5.80;3.90;;;10.00;99.90;;;;;;5116470;28;20453;-70
2021/11/05 11:51:33;;;;;;;8.10;5.00;;;10.00;99.90;;;;;;5116303;28;20452;-69
2021/11/05 11:54:20;;;;;;;7.97;4.30;;;9.90;99.90;;;;;;5116515;28;20443;-70
2021/11/05 11:56:48;;;;;;;7.47;4.63;;;10.00;99.90;;;;;;5115774;28;20479;-69
2021/11/05 11:59:17;;;;;;;6.70;4.80;;;10.00;99.90;;;;;;5116052;28;20478;-69
2021/11/05 12:01:45;;;;;;;6.00;4.13;;;10.00;99.90;;;;;;5116146;28;20835;-71
2021/11/05 12:04:14;;;;;;;6.03;4.90;;;10.00;99.90;;;;;;5115719;28;20459;-69
2021/11/05 12:07:02;;;;;;;5.23;4.73;;;10.10;99.90;;;;;;5116838;28;20788;-69
2021/11/05 12:09:32;;;;;;;8.07;4.53;;;10.20;99.90;;;;;;5115652;28;20931;-70
2021/11/05 12:12:31;;;;;;;5.77;4.57;;;10.10;99.90;;;;;;5115547;28;20888;-69
2021/11/05 12:15:09;;;;;;;4.90;4.40;;;10.20;99.90;;;;;;5052956;28;20455;-69
2021/11/05 12:18:07;;;;;;;7.73;4.57;;;10.30;99.90;;;;;;5106213;28;20513;-69
2021/11/05 12:20:37;;;;;;;6.33;4.10;;;10.30;99.90;;;;;;5115498;28;20762;-71
2021/11/05 12:23:19;;;;;;;7.60;5.60;;;10.30;99.90;;;;;;5115950;28;20444;-69
2021/11/05 12:25:48;;;;;;;6.40;5.20;;;10.30;99.90;;;;;;5115503;28;20531;-70
2021/11/05 12:28:18;;;;;;;15.73;6.07;;;10.40;99.90;;;;;;5115171;28;20808;-69
2021/11/05 12:30:46;;;;;;;6.47;5.30;;;10.50;99.90;;;;;;5115269;28;20437;-69
2021/11/05 12:33:31;;;;;;;7.83;5.50;;;10.60;99.90;;;;;;5115185;28;20478;-70
2021/11/05 12:35:59;;;;;;;8.37;5.93;;;10.70;99.90;;;;;;5115274;28;20538;-69
2021/11/05 12:38:26;;;;;;;7.97;6.37;;;10.70;99.90;;;;;;5117158;28;20457;-70
2021/11/05 12:41:03;;;;;;;8.00;5.53;;;10.80;99.90;;;;;;5116075;28;20787;-69
2021/11/05 12:43:49;;;;;;;11.30;5.40;;;10.80;99.90;;;;;;5116260;28;20445;-69
2021/11/05 12:46:24;;;;;;;9.07;5.53;;;10.80;99.90;;;;;;5112586;28;20667;-68
2021/11/05 12:48:59;;;;;;;9.70;5.77;;;10.80;99.90;;;;;;5115097;28;20444;-69
2021/11/05 12:51:40;;;;;;;6.83;5.80;;;10.80;99.90;;;;;;5114941;28;20444;-69
2021/11/05 12:54:11;;;;;;;6.20;5.17;;;10.80;99.90;;;;;;5115414;28;20463;-68